Time;durP1;ratioP1;P1;durP2;ratioP2;P2;SDS_P1;SDS_P2;PMS_P1;PMS_P2;Temp;Humidity;BMP_temperature;BMP_pressure;BME280_temperature;BME280_humidity;BME280_pressure;Samples;Min_cycle;Max_cycle;Signal;HPM_P1;HPM_P2
2022/02/15 00:01:24;;;;;;;4.57;1.92;;;8.60;99.90;;;;;;5187121;22;20030;-72
2022/02/15 00:03:24;;;;;;;5.78;2.20;;;8.50;99.90;;;;;;5190671;22;20003;-72
2022/02/15 00:05:25;;;;;;;5.80;1.90;;;8.50;99.90;;;;;;5189096;22;20061;-72
2022/02/15 00:07:26;;;;;;;4.80;2.10;;;8.50;99.90;;;;;;5190395;22;20057;-72
2022/02/15 00:09:26;;;;;;;4.88;1.98;;;8.50;99.90;;;;;;5187694;22;20083;-72
2022/02/15 00:11:27;;;;;;;6.03;2.17;;;8.40;99.90;;;;;;5186773;22;20060;-72
2022/02/15 00:13:27;;;;;;;7.00;2.40;;;8.40;99.90;;;;;;5187359;22;20011;-72
2022/02/15 00:15:29;;;;;;;7.30;2.20;;;8.40;99.90;;;;;;5186766;22;20016;-72
2022/02/15 00:17:30;;;;;;;4.03;1.60;;;8.40;99.90;;;;;;5189808;22;20008;-72
2022/02/15 00:19:30;;;;;;;5.75;2.00;;;8.40;99.90;;;;;;5187744;22;20090;-72
2022/02/15 00:21:32;;;;;;;9.13;2.08;;;8.40;99.90;;;;;;5188602;22;20452;-72
2022/02/15 00:23:33;;;;;;;8.13;2.25;;;8.40;99.90;;;;;;5190385;22;20012;-72
2022/02/15 00:25:33;;;;;;;6.95;2.10;;;8.40;99.90;;;;;;5189928;22;20031;-72
2022/02/15 00:27:34;;;;;;;6.10;2.30;;;8.30;99.90;;;;;;5190240;22;20389;-72
2022/02/15 00:29:34;;;;;;;8.25;2.08;;;8.40;99.90;;;;;;5190218;22;20016;-72
2022/02/15 00:31:35;;;;;;;9.05;2.40;;;8.30;99.90;;;;;;5189595;22;20437;-72
2022/02/15 00:33:36;;;;;;;5.85;2.50;;;8.30;99.90;;;;;;5187359;22;20483;-72
2022/02/15 00:35:36;;;;;;;6.40;2.13;;;8.30;99.90;;;;;;5187120;22;20433;-72
2022/02/15 00:37:37;;;;;;;7.63;2.38;;;8.30;99.90;;;;;;5189959;22;20028;-72
2022/02/15 00:39:37;;;;;;;5.55;2.10;;;8.30;99.90;;;;;;5190331;22;20623;-72
2022/02/15 00:41:38;;;;;;;5.30;2.15;;;8.30;99.90;;;;;;5188847;22;20015;-72
2022/02/15 00:43:39;;;;;;;5.35;1.90;;;8.40;99.90;;;;;;5190222;22;20090;-72
2022/02/15 00:45:39;;;;;;;5.78;2.13;;;8.40;99.90;;;;;;5189656;22;20452;-72
2022/02/15 00:47:40;;;;;;;7.50;2.55;;;8.40;99.90;;;;;;5190360;22;20016;-72
2022/02/15 00:49:41;;;;;;;6.53;2.78;;;8.40;99.90;;;;;;5162325;23;20414;-72
2022/02/15 00:51:42;;;;;;;8.75;2.65;;;8.40;99.90;;;;;;5188542;22;20018;-72
2022/02/15 00:53:42;;;;;;;2.55;1.77;;;8.40;99.90;;;;;;5187379;22;20027;-72
2022/02/15 00:55:43;;;;;;;8.15;2.53;;;8.40;99.90;;;;;;5186693;22;20015;-72
2022/02/15 00:57:44;;;;;;;11.30;2.55;;;8.40;99.90;;;;;;5190147;22;20011;-72
2022/02/15 00:59:44;;;;;;;9.75;2.50;;;8.40;99.90;;;;;;5187302;22;20012;-72
2022/02/15 01:01:45;;;;;;;8.70;2.40;;;8.40;99.90;;;;;;5186532;22;20492;-72
2022/02/15 01:03:46;;;;;;;6.78;2.40;;;8.40;99.90;;;;;;5189881;22;20015;-72
2022/02/15 01:05:46;;;;;;;7.65;2.33;;;8.40;99.90;;;;;;5186845;22;20024;-72
2022/02/15 01:07:47;;;;;;;6.38;2.30;;;8.40;99.90;;;;;;5190011;22;20074;-72
2022/02/15 01:09:47;;;;;;;8.13;2.38;;;8.40;99.90;;;;;;5187283;22;20028;-72
2022/02/15 01:11:48;;;;;;;7.97;2.60;;;8.40;99.90;;;;;;5189049;22;20011;-72
2022/02/15 01:13:49;;;;;;;5.43;2.00;;;8.40;99.90;;;;;;5189345;22;20094;-72
2022/02/15 01:15:49;;;;;;;6.07;2.05;;;8.40;99.90;;;;;;5188793;22;20007;-72
2022/02/15 01:17:50;;;;;;;7.68;3.00;;;8.40;99.90;;;;;;5189639;22;20065;-72
2022/02/15 01:19:50;;;;;;;8.30;3.03;;;8.30;99.90;;;;;;5187121;22;20016;-72
2022/02/15 01:21:51;;;;;;;10.38;2.60;;;8.40;99.90;;;;;;5186316;22;20310;-72
2022/02/15 01:23:52;;;;;;;8.15;2.40;;;8.30;99.90;;;;;;5187035;22;20023;-72
2022/02/15 01:25:52;;;;;;;8.23;2.63;;;8.30;99.90;;;;;;5188988;22;20069;-72
2022/02/15 01:27:54;;;;;;;9.80;3.20;;;8.40;99.90;;;;;;5187228;22;20066;-72
2022/02/15 01:29:55;;;;;;;5.20;2.53;;;8.40;99.90;;;;;;5189613;22;20439;-72
2022/02/15 01:31:55;;;;;;;7.20;2.60;;;8.40;99.90;;;;;;5188808;22;20008;-72
2022/02/15 01:33:56;;;;;;;6.47;2.80;;;8.40;99.90;;;;;;5189471;22;20091;-72
2022/02/15 01:35:57;;;;;;;9.85;3.15;;;8.40;99.90;;;;;;5188729;22;20047;-72
2022/02/15 01:37:58;;;;;;;6.68;3.17;;;8.40;99.90;;;;;;5187142;22;20018;-72
2022/02/15 01:39:58;;;;;;;9.10;3.03;;;8.40;99.90;;;;;;5189428;22;20011;-72
2022/02/15 01:42:00;;;;;;;6.68;2.85;;;8.40;99.90;;;;;;5188871;22;20125;-72
2022/02/15 01:44:01;;;;;;;4.43;3.17;;;8.40;99.90;;;;;;5187375;22;20492;-72
2022/02/15 01:46:02;;;;;;;5.68;2.53;;;8.40;99.90;;;;;;5187982;22;20012;-72
2022/02/15 01:48:03;;;;;;;6.85;3.10;;;8.50;99.90;;;;;;5187512;22;20030;-72
2022/02/15 01:50:04;;;;;;;6.88;3.08;;;8.40;99.90;;;;;;5190273;22;20008;-72
2022/02/15 01:52:05;;;;;;;9.38;3.47;;;8.50;99.90;;;;;;5190202;22;20083;-72
2022/02/15 01:54:06;;;;;;;10.55;3.17;;;8.50;99.90;;;;;;5191691;22;20345;-72
2022/02/15 01:56:09;;;;;;;10.20;3.65;;;8.50;99.90;;;;;;5190615;22;20378;-72
2022/02/15 01:58:11;;;;;;;10.23;3.72;;;8.50;99.90;;;;;;5191707;22;20020;-72
2022/02/15 02:00:19;;;;;;;8.93;3.63;;;8.40;99.90;;;;;;5190943;22;20032;-72
2022/02/15 02:02:20;;;;;;;9.70;3.97;;;8.50;99.90;;;;;;5190118;22;20015;-72
2022/02/15 02:06:40;;;;;;;10.43;4.03;;;8.40;99.90;;;;;;5189435;22;20016;-72
2022/02/15 02:08:40;;;;;;;8.27;3.78;;;8.40;99.90;;;;;;5191178;22;20464;-72
2022/02/15 02:10:41;;;;;;;10.52;4.32;;;8.40;99.90;;;;;;5190644;22;20473;-72
2022/02/15 02:12:41;;;;;;;10.30;4.63;;;8.40;99.90;;;;;;5191132;22;20444;-72
2022/02/15 02:14:42;;;;;;;8.43;4.50;;;8.40;99.90;;;;;;5190765;22;20036;-72
2022/02/15 02:16:43;;;;;;;7.95;4.05;;;8.40;99.90;;;;;;5190032;22;20004;-72
2022/02/15 02:18:44;;;;;;;7.90;4.28;;;8.40;99.90;;;;;;5190880;22;20012;-72
2022/02/15 02:20:46;;;;;;;8.93;3.72;;;8.40;99.90;;;;;;5190014;22;20128;-72
2022/02/15 02:22:47;;;;;;;9.98;4.82;;;8.40;99.90;;;;;;5190122;22;20035;-72
2022/02/15 02:24:47;;;;;;;11.18;5.32;;;8.30;99.90;;;;;;5190532;22;20007;-72
2022/02/15 02:26:50;;;;;;;10.57;4.72;;;8.30;99.90;;;;;;5189823;22;20007;-72
2022/02/15 02:28:50;;;;;;;;;;;8.40;99.90;;;;;;5190337;22;20047;-72
2022/02/15 02:30:51;;;;;;;8.75;3.95;;;8.40;99.90;;;;;;5162046;23;20270;-72
2022/02/15 02:32:52;;;;;;;13.05;5.30;;;8.40;99.90;;;;;;5188332;22;20487;-72
2022/02/15 02:34:53;;;;;;;7.38;4.60;;;8.30;99.90;;;;;;5190739;22;20015;-72
2022/02/15 02:36:54;;;;;;;7.65;4.53;;;8.40;99.90;;;;;;5187537;22;20582;-72
2022/02/15 02:38:55;;;;;;;8.85;4.80;;;8.40;99.90;;;;;;5188458;22;20020;-72
2022/02/15 02:40:56;;;;;;;11.02;5.80;;;8.40;99.90;;;;;;5187746;22;20022;-72
2022/02/15 02:42:56;;;;;;;11.27;5.18;;;8.40;99.90;;;;;;5187722;22;20445;-72
2022/02/15 02:45:00;;;;;;;10.55;6.10;;;8.30;99.90;;;;;;5188197;22;20086;-72
2022/02/15 02:47:01;;;;;;;12.25;6.13;;;8.40;99.90;;;;;;5189569;22;20018;-72
2022/02/15 02:49:01;;;;;;;11.52;5.97;;;8.40;99.90;;;;;;5189978;22;20023;-72
2022/02/15 02:51:02;;;;;;;11.02;5.45;;;8.40;99.90;;;;;;5189341;22;20106;-72
2022/02/15 02:53:03;;;;;;;12.85;6.55;;;8.40;99.90;;;;;;5189951;22;20344;-72
2022/02/15 02:55:04;;;;;;;12.70;6.32;;;8.40;99.90;;;;;;5189501;22;20372;-72
2022/02/15 02:57:06;;;;;;;10.15;6.28;;;8.40;99.90;;;;;;5187661;22;20080;-72
2022/02/15 02:59:07;;;;;;;8.77;5.75;;;8.40;99.90;;;;;;5190948;22;20018;-72
2022/02/15 03:01:08;;;;;;;9.68;5.43;;;8.40;99.90;;;;;;5190510;22;20045;-72
2022/02/15 03:03:09;;;;;;;12.95;6.60;;;8.50;99.90;;;;;;5191024;22;20064;-72
2022/02/15 03:05:09;;;;;;;11.57;7.25;;;8.50;99.90;;;;;;5190070;22;20039;-72
2022/02/15 03:07:10;;;;;;;13.98;7.28;;;8.50;99.90;;;;;;5187557;22;20390;-72
2022/02/15 03:09:11;;;;;;;9.70;6.32;;;8.40;99.90;;;;;;5190415;22;20460;-72
2022/02/15 03:11:12;;;;;;;15.95;6.90;;;8.40;99.90;;;;;;5189961;22;20020;-72
2022/02/15 03:13:12;;;;;;;9.02;5.93;;;8.40;99.90;;;;;;5188104;22;20015;-72
2022/02/15 03:15:13;;;;;;;12.30;6.55;;;8.40;99.90;;;;;;5189584;22;20018;-72
2022/02/15 03:17:16;;;;;;;12.70;6.10;;;8.40;99.90;;;;;;5187733;22;20069;-72
2022/02/15 03:19:17;;;;;;;13.45;6.90;;;8.40;99.90;;;;;;5189406;22;20386;-72
2022/02/15 03:21:17;;;;;;;11.25;5.32;;;8.40;99.90;;;;;;5189173;22;20462;-72
2022/02/15 03:23:19;;;;;;;11.02;6.30;;;8.40;99.90;;;;;;5187477;22;20039;-72
2022/02/15 03:25:19;;;;;;;10.30;5.63;;;8.40;99.90;;;;;;5187235;22;20014;-72
2022/02/15 03:27:20;;;;;;;9.82;6.10;;;8.40;99.90;;;;;;5189694;22;20012;-72
2022/02/15 03:29:20;;;;;;;11.85;5.30;;;8.40;99.90;;;;;;5188792;22;20028;-72
2022/02/15 03:31:22;;;;;;;7.65;5.53;;;8.30;99.90;;;;;;5189641;22;20016;-72
2022/02/15 03:33:22;;;;;;;12.45;6.20;;;8.40;99.90;;;;;;5190704;22;20015;-72
2022/02/15 03:35:23;;;;;;;9.32;5.70;;;8.40;99.90;;;;;;5190071;22;20011;-72
2022/02/15 03:37:23;;;;;;;9.63;6.20;;;8.40;99.90;;;;;;5190020;22;20039;-72
2022/02/15 03:39:24;;;;;;;9.77;6.45;;;8.40;99.90;;;;;;5189810;22;20024;-72
2022/02/15 03:43:44;;;;;;;8.63;5.65;;;8.30;99.90;;;;;;5189720;22;20421;-71
2022/02/15 03:45:46;;;;;;;8.95;5.55;;;8.40;99.90;;;;;;5189601;22;20014;-71
2022/02/15 03:47:47;;;;;;;12.18;5.75;;;8.40;99.90;;;;;;5187975;22;20008;-71
2022/02/15 03:49:47;;;;;;;8.45;5.28;;;8.40;99.90;;;;;;5190495;22;20018;-71
2022/02/15 03:51:48;;;;;;;9.15;5.57;;;8.40;99.90;;;;;;5189429;22;20014;-71
2022/02/15 03:53:49;;;;;;;10.70;6.03;;;8.40;99.90;;;;;;5187805;22;20459;-71
2022/02/15 03:55:50;;;;;;;12.93;5.97;;;8.40;99.90;;;;;;5189023;22;20032;-71
2022/02/15 03:57:50;;;;;;;13.02;5.80;;;8.40;99.90;;;;;;5188242;22;20007;-71
2022/02/15 03:59:51;;;;;;;9.80;6.28;;;8.40;99.90;;;;;;5187599;22;20031;-71
2022/02/15 04:01:51;;;;;;;8.23;5.80;;;8.40;99.90;;;;;;5190177;22;20015;-71
2022/02/15 04:03:52;;;;;;;8.50;5.38;;;8.40;99.90;;;;;;5190657;22;20012;-71
2022/02/15 04:05:54;;;;;;;11.43;6.10;;;8.40;99.90;;;;;;5189487;22;20073;-71
2022/02/15 04:07:55;;;;;;;12.75;6.57;;;8.40;99.90;;;;;;5190485;22;20016;-71
2022/02/15 04:09:55;;;;;;;8.07;6.10;;;8.40;99.90;;;;;;5190290;22;20019;-71
2022/02/15 04:11:56;;;;;;;11.35;6.88;;;8.40;99.90;;;;;;5189580;22;20069;-71
2022/02/15 04:13:56;;;;;;;9.35;6.57;;;8.40;99.90;;;;;;5189828;22;20011;-71
2022/02/15 04:15:57;;;;;;;14.85;6.15;;;8.40;99.90;;;;;;5187088;22;20007;-71
2022/02/15 04:17:58;;;;;;;13.38;6.05;;;8.40;99.90;;;;;;5190709;22;20007;-71
2022/02/15 04:19:59;;;;;;;9.95;6.30;;;8.40;99.90;;;;;;5190205;22;20023;-71
2022/02/15 04:21:59;;;;;;;9.75;5.72;;;8.30;99.90;;;;;;5189069;22;20033;-71
2022/02/15 04:24:00;;;;;;;12.25;6.10;;;8.30;99.90;;;;;;5189644;22;20019;-71
2022/02/15 04:26:00;;;;;;;12.27;7.20;;;8.30;99.90;;;;;;5186938;22;20026;-71
2022/02/15 04:28:01;;;;;;;12.02;6.43;;;8.20;99.90;;;;;;5190270;22;20341;-71
2022/02/15 04:30:03;;;;;;;15.90;7.00;;;8.20;99.90;;;;;;5189030;22;20024;-70
2022/02/15 04:32:04;;;;;;;13.80;7.18;;;8.10;99.90;;;;;;5188788;22;20754;-71
2022/02/15 04:34:04;;;;;;;11.60;6.53;;;8.10;99.90;;;;;;5189213;22;20008;-71
2022/02/15 04:36:06;;;;;;;14.20;6.07;;;8.10;99.90;;;;;;5190167;22;20015;-71
2022/02/15 04:38:06;;;;;;;9.10;5.95;;;8.00;99.90;;;;;;5190469;22;20130;-71
2022/02/15 04:40:07;;;;;;;13.68;6.85;;;8.10;99.90;;;;;;5186854;22;20416;-71
2022/02/15 04:42:08;;;;;;;13.55;6.90;;;8.10;99.90;;;;;;5189934;22;20007;-71
2022/02/15 04:44:09;;;;;;;10.90;6.05;;;8.10;99.90;;;;;;5190662;22;20015;-71
2022/02/15 04:46:10;;;;;;;12.30;6.55;;;8.10;99.90;;;;;;5189565;22;20004;-71
2022/02/15 04:48:10;;;;;;;11.52;6.80;;;8.10;99.90;;;;;;5190706;22;20020;-71
2022/02/15 04:50:11;;;;;;;9.63;6.22;;;8.10;99.90;;;;;;5189174;22;20011;-71
2022/02/15 04:52:11;;;;;;;14.35;7.38;;;8.10;99.90;;;;;;5189459;22;20035;-71
2022/02/15 04:54:13;;;;;;;11.18;6.57;;;8.10;99.90;;;;;;5187864;22;20016;-71
2022/02/15 04:56:13;;;;;;;11.38;6.90;;;8.10;99.90;;;;;;5189446;22;20488;-71
2022/02/15 04:58:14;;;;;;;13.25;7.10;;;8.10;99.90;;;;;;5190005;22;20074;-71
2022/02/15 05:00:15;;;;;;;11.45;6.68;;;8.10;99.90;;;;;;5186824;22;20027;-71
2022/02/15 05:02:15;;;;;;;11.93;6.82;;;8.00;99.90;;;;;;5186352;22;20011;-71
2022/02/15 05:06:35;;;;;;;12.73;6.57;;;8.00;99.90;;;;;;5186249;22;20108;-71
2022/02/15 05:08:35;;;;;;;13.02;7.30;;;8.00;99.90;;;;;;5184736;22;20060;-71
2022/02/15 05:10:38;;;;;;;11.02;6.70;;;8.00;99.90;;;;;;5188124;22;20018;-71
2022/02/15 05:12:39;;;;;;;12.70;6.18;;;8.00;99.90;;;;;;5186034;22;20361;-71
2022/02/15 05:14:41;;;;;;;9.63;5.78;;;8.00;99.90;;;;;;5188481;22;20084;-71
2022/02/15 05:16:41;;;;;;;12.80;6.63;;;8.00;99.90;;;;;;5187987;22;20014;-71
2022/02/15 05:18:42;;;;;;;9.32;5.93;;;8.00;99.90;;;;;;5185814;22;20090;-71
2022/02/15 05:20:42;;;;;;;12.10;6.78;;;8.00;99.90;;;;;;5187127;22;20041;-71
2022/02/15 05:22:45;;;;;;;10.00;5.70;;;7.90;99.90;;;;;;5187779;22;20012;-71
2022/02/15 05:24:45;;;;;;;9.77;5.18;;;8.00;99.90;;;;;;5185588;22;20039;-71
2022/02/15 05:26:46;;;;;;;9.70;6.20;;;8.00;99.90;;;;;;5187491;22;20061;-71
2022/02/15 05:28:47;;;;;;;11.82;5.63;;;8.00;99.90;;;;;;5186871;22;20007;-71
2022/02/15 05:30:47;;;;;;;10.90;6.50;;;8.00;99.90;;;;;;5189125;22;20019;-71
2022/02/15 05:32:48;;;;;;;11.93;6.30;;;8.00;99.90;;;;;;5190579;22;20016;-71
2022/02/15 05:34:49;;;;;;;8.85;5.45;;;8.00;99.90;;;;;;5190562;22;20019;-71
2022/02/15 05:36:49;;;;;;;9.55;5.70;;;8.00;99.90;;;;;;5189121;22;20046;-71
2022/02/15 05:38:50;;;;;;;10.25;5.68;;;8.00;99.90;;;;;;5190189;22;20019;-71
2022/02/15 05:40:50;;;;;;;9.32;5.95;;;8.00;99.90;;;;;;5189797;22;20011;-71
2022/02/15 05:42:51;;;;;;;10.57;6.07;;;8.00;99.90;;;;;;5187856;22;20012;-71
2022/02/15 05:44:52;;;;;;;8.05;5.45;;;8.00;99.90;;;;;;5187786;22;20058;-71
2022/02/15 05:46:52;;;;;;;11.77;5.50;;;7.90;99.90;;;;;;5188972;22;20453;-71
2022/02/15 05:48:53;;;;;;;9.73;5.45;;;7.90;99.90;;;;;;5191165;22;20086;-71
2022/02/15 05:50:55;;;;;;;10.07;5.45;;;8.00;99.90;;;;;;5190440;22;20012;-71
2022/02/15 05:52:55;;;;;;;9.27;4.90;;;7.90;99.90;;;;;;5190679;22;20019;-71
2022/02/15 05:54:56;;;;;;;7.68;4.70;;;7.90;99.90;;;;;;5191045;22;20012;-71
2022/02/15 05:56:56;;;;;;;8.25;4.85;;;7.90;99.90;;;;;;5189464;22;20348;-71
2022/02/15 05:58:58;;;;;;;11.52;5.00;;;7.90;99.90;;;;;;5190421;22;20082;-71
2022/02/15 06:01:02;;;;;;;8.73;5.03;;;7.90;99.90;;;;;;5187441;22;20035;-71
2022/02/15 06:04:09;;;;;;;6.43;4.75;;;7.90;99.90;;;;;;5190245;22;20014;-71
2022/02/15 06:05:23;;;;;;;9.07;4.60;;;7.90;99.90;;;;;;5188688;22;20391;-71
2022/02/15 06:07:23;;;;;;;8.43;4.80;;;7.90;99.90;;;;;;5190193;22;20019;-71
2022/02/15 06:09:24;;;;;;;8.43;4.75;;;7.80;99.90;;;;;;5190394;22;20082;-71
2022/02/15 06:11:25;;;;;;;5.55;3.78;;;7.80;99.90;;;;;;5189461;22;20089;-71
2022/02/15 06:13:25;;;;;;;9.57;4.70;;;7.80;99.90;;;;;;5189942;22;20091;-71
2022/02/15 06:15:26;;;;;;;8.48;4.60;;;7.80;99.90;;;;;;5189867;22;20459;-71
2022/02/15 06:17:26;;;;;;;9.95;4.93;;;7.80;99.90;;;;;;5189352;22;20011;-71
2022/02/15 06:19:27;;;;;;;9.45;5.35;;;7.80;99.90;;;;;;5187307;22;20012;-71
2022/02/15 06:21:28;;;;;;;8.90;4.47;;;7.80;99.90;;;;;;5189962;22;20008;-71
2022/02/15 06:23:28;;;;;;;8.57;4.75;;;7.80;99.90;;;;;;5188778;22;20023;-71
2022/02/15 06:25:29;;;;;;;10.18;5.32;;;7.70;99.90;;;;;;5189489;22;20441;-71
2022/02/15 06:27:29;;;;;;;10.05;5.40;;;7.70;99.90;;;;;;5187019;22;20055;-71
2022/02/15 06:29:34;;;;;;;11.05;5.07;;;7.70;99.90;;;;;;5180139;22;20343;-71
2022/02/15 06:31:35;;;;;;;8.43;5.75;;;7.70;99.90;;;;;;5188892;22;20015;-71
2022/02/15 06:33:36;;;;;;;7.93;5.47;;;7.70;99.90;;;;;;5188952;22;20114;-71
2022/02/15 06:35:37;;;;;;;11.75;6.28;;;7.70;99.90;;;;;;5187012;22;20512;-71
2022/02/15 06:37:46;;;;;;;10.63;5.20;;;7.70;99.90;;;;;;5190659;22;20446;-71
2022/02/15 06:39:47;;;;;;;10.13;6.45;;;7.70;99.90;;;;;;5190000;22;20546;-71
2022/02/15 06:41:48;;;;;;;13.13;7.10;;;7.70;99.90;;;;;;5189287;22;20032;-72
2022/02/15 06:43:50;;;;;;;9.68;5.80;;;7.70;99.90;;;;;;5188089;22;20481;-72
2022/02/15 06:45:51;;;;;;;10.02;6.70;;;7.70;99.90;;;;;;5189901;22;20445;-73
2022/02/15 06:47:52;;;;;;;12.88;6.50;;;7.70;99.90;;;;;;5189705;22;20023;-73
2022/02/15 06:49:52;;;;;;;11.02;6.85;;;7.70;99.90;;;;;;5190123;22;20012;-73
2022/02/15 06:51:53;;;;;;;12.93;6.57;;;7.80;99.90;;;;;;5187497;22;20015;-73
2022/02/15 06:53:53;;;;;;;9.82;6.57;;;7.70;99.90;;;;;;5162123;23;20080;-73
2022/02/15 06:55:54;;;;;;;9.93;6.63;;;7.80;99.90;;;;;;5190064;22;20353;-73
2022/02/15 06:57:55;;;;;;;12.23;7.55;;;7.80;99.90;;;;;;5190359;22;20031;-72
2022/02/15 06:59:55;;;;;;;12.55;6.80;;;7.80;99.90;;;;;;5190921;22;20042;-73
2022/02/15 07:01:56;;;;;;;10.68;6.57;;;7.80;99.90;;;;;;5189793;22;20038;-73
2022/02/15 07:03:57;;;;;;;15.75;8.20;;;7.80;99.90;;;;;;5188314;22;20060;-73
2022/02/15 07:05:57;;;;;;;13.38;7.93;;;7.80;99.90;;;;;;5190282;22;20018;-72
2022/02/15 07:07:58;;;;;;;13.65;8.40;;;7.80;99.90;;;;;;5190129;22;20011;-73
2022/02/15 07:10:00;;;;;;;14.73;9.25;;;7.80;99.90;;;;;;5190867;22;20059;-72
2022/02/15 07:12:00;;;;;;;19.75;9.82;;;7.80;99.90;;;;;;5190117;22;20011;-72
2022/02/15 07:14:02;;;;;;;17.95;9.82;;;7.70;99.90;;;;;;5188274;22;20019;-72
2022/02/15 07:16:02;;;;;;;17.48;10.30;;;7.70;99.90;;;;;;5162093;23;20016;-72
2022/02/15 07:18:03;;;;;;;16.58;10.38;;;7.70;99.90;;;;;;5187669;22;20008;-73
2022/02/15 07:20:06;;;;;;;19.35;9.68;;;7.70;99.90;;;;;;5189538;22;20012;-72
2022/02/15 07:22:07;;;;;;;15.40;10.50;;;7.70;99.90;;;;;;5188416;22;20392;-72
2022/02/15 07:24:08;;;;;;;15.18;9.45;;;7.70;99.90;;;;;;5189134;22;20057;-72
2022/02/15 07:26:08;;;;;;;14.32;9.38;;;7.70;99.90;;;;;;5189618;22;20011;-72
2022/02/15 07:28:09;;;;;;;14.30;8.82;;;7.70;99.90;;;;;;5190500;22;20011;-72
2022/02/15 07:30:10;;;;;;;19.70;10.05;;;7.70;99.90;;;;;;5189814;22;20495;-73
2022/02/15 07:32:10;;;;;;;18.23;10.15;;;7.70;99.90;;;;;;5190013;22;20027;-73
2022/02/15 07:34:11;;;;;;;16.38;9.05;;;7.70;99.90;;;;;;5190557;22;20026;-73
2022/02/15 07:36:11;;;;;;;13.48;8.40;;;7.70;99.90;;;;;;5189248;22;20016;-72
2022/02/15 07:38:13;;;;;;;13.55;8.02;;;7.70;99.90;;;;;;5189561;22;20015;-72
2022/02/15 07:40:18;;;;;;;16.25;8.90;;;7.80;99.90;;;;;;5188972;22;20023;-73
2022/02/15 07:42:19;;;;;;;16.65;9.05;;;7.80;99.90;;;;;;5183430;22;20480;-73
2022/02/15 07:44:19;;;;;;;16.00;8.90;;;7.80;99.90;;;;;;5187399;22;20014;-73
2022/02/15 07:46:20;;;;;;;12.35;7.95;;;7.80;99.90;;;;;;5183486;22;20492;-73
2022/02/15 07:48:21;;;;;;;15.25;8.13;;;7.80;99.90;;;;;;5188796;22;20011;-73
2022/02/15 07:50:23;;;;;;;12.55;7.90;;;7.80;99.90;;;;;;5184775;22;20018;-73
2022/02/15 07:52:24;;;;;;;16.33;9.23;;;7.90;99.90;;;;;;5187619;22;20004;-72
2022/02/15 07:54:24;;;;;;;12.35;8.45;;;7.90;99.90;;;;;;5187004;22;20071;-72
2022/02/15 07:56:25;;;;;;;16.85;9.80;;;7.80;99.90;;;;;;5189135;22;20012;-73
2022/02/15 07:58:26;;;;;;;18.45;9.77;;;7.90;99.90;;;;;;5189633;22;20016;-73
2022/02/15 08:00:26;;;;;;;17.35;9.93;;;7.80;99.90;;;;;;5188818;22;21420;-72
2022/02/15 08:02:27;;;;;;;17.17;9.63;;;7.80;99.90;;;;;;5189753;22;20015;-73
2022/02/15 08:04:28;;;;;;;15.57;9.45;;;7.80;99.90;;;;;;5186755;22;20014;-73
2022/02/15 08:06:29;;;;;;;13.98;9.50;;;7.80;99.90;;;;;;5189113;22;20004;-73
2022/02/15 08:08:30;;;;;;;15.48;8.77;;;7.80;99.90;;;;;;5189318;22;20007;-73
2022/02/15 08:10:34;;;;;;;13.90;8.50;;;7.80;99.90;;;;;;5185986;22;20463;-72
2022/02/15 08:12:36;;;;;;;22.00;10.50;;;7.80;99.90;;;;;;5161290;23;20011;-72
2022/02/15 08:14:36;;;;;;;17.25;9.77;;;7.90;99.90;;;;;;5188858;22;20395;-73
2022/02/15 08:16:37;;;;;;;13.30;8.07;;;7.90;99.90;;;;;;5187609;22;20007;-73
2022/02/15 08:18:41;;;;;;;14.38;8.90;;;7.90;99.90;;;;;;5188211;22;20019;-72
2022/02/15 08:20:42;;;;;;;13.73;8.35;;;7.90;99.90;;;;;;5189050;22;20004;-72
2022/02/15 08:22:42;;;;;;;12.70;8.40;;;7.90;99.90;;;;;;5189542;22;20036;-73
2022/02/15 08:24:43;;;;;;;15.38;10.20;;;7.90;99.90;;;;;;5189022;22;20469;-70
2022/02/15 08:26:44;;;;;;;17.83;9.48;;;7.90;99.90;;;;;;5187509;22;20083;-69
2022/02/15 08:28:46;;;;;;;16.60;9.75;;;7.90;99.90;;;;;;5189275;22;20470;-69
2022/02/15 08:30:47;;;;;;;16.70;10.02;;;7.90;99.90;;;;;;5187552;22;20016;-69
2022/02/15 08:32:48;;;;;;;15.55;9.30;;;7.90;99.90;;;;;;5188693;22;20008;-69
2022/02/15 08:34:49;;;;;;;13.93;9.48;;;7.90;99.90;;;;;;5186503;22;20012;-69
2022/02/15 08:36:50;;;;;;;15.98;8.95;;;7.80;99.90;;;;;;5184997;22;20012;-69
2022/02/15 08:38:51;;;;;;;22.20;10.45;;;7.90;99.90;;;;;;5186211;22;20062;-69
2022/02/15 08:40:51;;;;;;;16.15;9.55;;;7.90;99.90;;;;;;5187681;22;20032;-69
2022/02/15 08:42:52;;;;;;;17.83;9.55;;;7.90;99.90;;;;;;5186352;22;20011;-69
2022/02/15 08:44:56;;;;;;;16.85;10.18;;;7.90;99.90;;;;;;5187519;22;20323;-69
2022/02/15 08:46:56;;;;;;;13.73;8.95;;;7.90;99.90;;;;;;5186879;22;20330;-69
2022/02/15 08:48:57;;;;;;;16.98;10.32;;;8.00;99.90;;;;;;5186260;22;20110;-69
2022/02/15 08:50:57;;;;;;;15.52;8.48;;;8.00;99.90;;;;;;5187955;22;20015;-69
2022/02/15 08:52:58;;;;;;;19.20;10.52;;;8.00;99.90;;;;;;5186880;22;20455;-69
2022/02/15 08:54:58;;;;;;;20.08;9.60;;;8.10;99.90;;;;;;5187900;22;20011;-69
2022/02/15 08:56:59;;;;;;;14.35;9.88;;;8.10;99.90;;;;;;5185198;22;20008;-69
2022/02/15 08:59:00;;;;;;;18.05;9.82;;;8.10;99.90;;;;;;5188427;22;20016;-69
2022/02/15 09:01:02;;;;;;;12.30;9.05;;;8.20;99.90;;;;;;5188052;22;20011;-69
2022/02/15 09:03:03;;;;;;;16.58;8.98;;;8.20;99.90;;;;;;5185647;22;20011;-69
2022/02/15 09:05:05;;;;;;;15.20;9.00;;;8.10;99.90;;;;;;5187907;22;20015;-69
2022/02/15 09:07:09;;;;;;;13.80;8.45;;;8.10;99.90;;;;;;5187610;22;20033;-69
2022/02/15 09:09:13;;;;;;;14.15;9.55;;;8.10;99.90;;;;;;5187362;22;20463;-69
2022/02/15 09:11:14;;;;;;;16.02;9.27;;;8.10;99.90;;;;;;5184779;22;20020;-69
2022/02/15 09:13:14;;;;;;;14.85;8.70;;;8.10;99.90;;;;;;5185573;22;20554;-69
2022/02/15 09:15:15;;;;;;;12.48;8.13;;;8.10;99.90;;;;;;5184903;22;20353;-69
2022/02/15 09:17:16;;;;;;;15.57;8.38;;;8.20;99.90;;;;;;5185455;22;20015;-69
2022/02/15 09:19:16;;;;;;;16.40;9.07;;;8.10;99.90;;;;;;5185462;22;20039;-69
2022/02/15 09:21:17;;;;;;;11.95;8.23;;;8.20;99.90;;;;;;5187754;22;20012;-69
2022/02/15 09:23:18;;;;;;;10.63;7.95;;;8.20;99.90;;;;;;5185868;22;20008;-69
2022/02/15 09:25:19;;;;;;;13.07;8.15;;;8.20;99.90;;;;;;5187516;22;20345;-69
2022/02/15 09:27:19;;;;;;;13.00;8.38;;;8.20;99.90;;;;;;5185578;22;20130;-69
2022/02/15 09:29:20;;;;;;;14.20;8.43;;;8.20;99.90;;;;;;5187511;22;20011;-69
2022/02/15 09:31:21;;;;;;;15.43;8.35;;;8.20;99.90;;;;;;5184860;22;20016;-69
2022/02/15 09:33:22;;;;;;;12.90;7.55;;;8.20;99.90;;;;;;5187594;22;20016;-69
2022/02/15 09:35:23;;;;;;;16.27;8.60;;;8.20;99.90;;;;;;5185262;22;20128;-69
2022/02/15 09:37:24;;;;;;;10.77;7.40;;;8.20;99.90;;;;;;5187530;22;20406;-69
2022/02/15 09:39:24;;;;;;;12.77;7.70;;;8.20;99.90;;;;;;5187600;22;20075;-69
2022/02/15 09:41:25;;;;;;;11.18;7.32;;;8.20;99.90;;;;;;5184602;22;20015;-69
2022/02/15 09:43:26;;;;;;;14.40;7.95;;;8.20;99.90;;;;;;5187871;22;20149;-69
2022/02/15 09:45:27;;;;;;;14.90;8.93;;;8.20;99.90;;;;;;5187456;22;20461;-69
2022/02/15 09:47:28;;;;;;;18.17;8.43;;;8.30;99.90;;;;;;5160103;23;20444;-69
2022/02/15 09:49:49;;;;;;;18.75;8.73;;;8.30;99.90;;;;;;5187723;22;20016;-69
2022/02/15 09:51:50;;;;;;;13.65;7.88;;;8.30;99.90;;;;;;5186890;22;20065;-69
2022/02/15 09:53:51;;;;;;;18.55;8.50;;;8.30;99.90;;;;;;5188046;22;20057;-69
2022/02/15 09:55:51;;;;;;;16.83;8.35;;;8.30;99.90;;;;;;5187488;22;20016;-69
2022/02/15 09:57:53;;;;;;;16.80;8.75;;;8.20;99.90;;;;;;5186136;22;20015;-69
2022/02/15 09:59:54;;;;;;;13.25;8.48;;;8.30;99.90;;;;;;5187250;22;20042;-69
2022/02/15 10:01:55;;;;;;;17.83;8.50;;;8.20;99.90;;;;;;5186963;22;20008;-69
2022/02/15 10:04:00;;;;;;;12.43;7.75;;;8.20;99.90;;;;;;5185719;22;20035;-69
2022/02/15 10:06:10;;;;;;;17.88;9.02;;;8.30;99.90;;;;;;5187115;22;20011;-69
2022/02/15 10:08:11;;;;;;;15.48;9.18;;;8.20;99.90;;;;;;5185239;22;20023;-69
2022/02/15 10:10:12;;;;;;;15.10;8.70;;;8.20;99.90;;;;;;5187361;22;20007;-69
2022/02/15 10:12:14;;;;;;;14.23;7.82;;;8.30;99.90;;;;;;5185120;22;20046;-69
2022/02/15 10:14:19;;;;;;;17.02;7.18;;;8.40;99.90;;;;;;5188599;22;20038;-69
2022/02/15 10:16:19;;;;;;;11.57;7.68;;;8.40;99.90;;;;;;5188728;22;20011;-69
2022/02/15 10:18:22;;;;;;;13.20;7.60;;;8.50;99.90;;;;;;5186707;22;20019;-69
2022/02/15 10:20:26;;;;;;;14.00;7.03;;;8.50;99.90;;;;;;5187920;22;20662;-69
2022/02/15 10:22:26;;;;;;;9.05;6.15;;;8.60;99.90;;;;;;5187921;22;20047;-69
2022/02/15 10:24:29;;;;;;;15.13;7.68;;;8.60;99.90;;;;;;5186535;22;20008;-69
2022/02/15 10:26:32;;;;;;;10.90;6.55;;;8.60;99.90;;;;;;5188362;22;20314;-69
2022/02/15 10:28:33;;;;;;;12.73;6.95;;;8.60;99.90;;;;;;5186540;22;20409;-69
2022/02/15 10:30:38;;;;;;;16.92;7.07;;;8.60;99.90;;;;;;5185660;22;20026;-69
2022/02/15 10:32:39;;;;;;;11.77;6.53;;;8.70;99.90;;;;;;5188275;22;20030;-69
2022/02/15 10:34:51;;;;;;;10.85;6.50;;;8.70;99.90;;;;;;5186334;22;20004;-69
2022/02/15 10:36:58;;;;;;;12.90;6.17;;;8.70;99.90;;;;;;5188372;22;20341;-69
2022/02/15 10:39:01;;;;;;;19.25;6.75;;;8.60;99.90;;;;;;5188102;22;20271;-69
2022/02/15 10:41:04;;;;;;;11.75;5.03;;;8.70;99.90;;;;;;5173338;22;20091;-69